GMTAGMME

Guest
Details From GMTA - CHERIF EL IDRISSI
To GMME - SALE
Flight Number -
Tags generated
Created
Modified
Stats Distance 166 nm / 307 km
Max Altitude 16,200 ft / 4,938 m
Waypoints 3
Social Downloads 0
Likes 0
Share VATSIM

Download

Looking for another format? Having issues loading an existing format? Contact us
Advertisement - Login to hide

Notes

Basic altitude profile: - Ascent Rate: 2500ft/min - Ascent Speed: 250kts - Cruise Altitude: 120ft - Cruise Speed: 420kts - Descent Rate: 1500ft/min - Descent Speed: 250kts Options: - Use NATs: yes - Use PACOTS: yes - Use low airways: yes - Use high airways: no

Route

GMTA IXODA GMME

ID Type Via Altitude (ft/m) Position (lat/lon) Dist (leg/tot) Name
O GMTA APT - 0 / 0 35.17730 / -3.83956 - / 0 nm CHERIF EL IDRISSI
IXODA FIX - 16,200 / 4,938 34.95889 / -5.54833 85 / 85 nm
O GMME APT - 0 / 0 34.05147 / -6.75152 80 / 165 nm SALE

Altitude Profile

Advertisement - Login to hide

Weather


0- 5 10 15 20 25 30 35+ Temperature / °C

Clouds and Precipitation
Forecast for 2019-05-26 12:00 UTC. Updated 4 hours ago

Ground ~20,000 ft ~40,000 ft Winds

GMTA

Details ICAO GMTA (AHU)
Name CHERIF EL IDRISSI
Region Morocco
Timezone Africa/Casablanca (UTC+0.0)
Stats Elevation 95 ft / 29 m (AMSL)
Location 35.177300° -3.839560°
Runways 1
Magnetic Variation 0.537° W

METAR

GMTA 261300Z 02014KT 9999 FEW030 24/12 Q1015 NOSIG

Decode

TAF

TAF TAF GMTA 261100Z 2612/2718 32010KT CAVOK

Decode

Departure Runways

ID Width Length Bearing (true/mag) Surface Threshold Overrun Markings Lighting
18 148 ft / 45 m 8,234 ft / 2,510 m 172.65° / 173.18° ASPHALT 0 ft / 0 m 0 ft / 0 m APP EDGE THRESHOLD
36 148 ft / 45 m 8,234 ft / 2,510 m 352.65° / 353.19° ASPHALT 0 ft / 0 m 0 ft / 0 m APP EDGE THRESHOLD

GMME

Details ICAO GMME (RBA)
Name SALE
Region Morocco
Timezone Africa/Casablanca (UTC+0.0)
Stats Elevation 276 ft / 84 m (AMSL)
Location 34.051500° -6.751520°
Runways 1
Magnetic Variation 1.388° W

METAR

GMME 261300Z 35019KT 8000 NSC 28/11 Q1012 NOSIG

Decode

TAF

TAF GMME 261100Z 2612/2718 07013KT 8000 BKN020 BECMG 2612/2614 36012KT PROB30 TEMPO 2622/2706 17007KT 4000 BR BKN010

Decode

Destination Runways

ID Width Length Bearing (true/mag) Surface Threshold Overrun Markings Lighting
04 148 ft / 45 m 11,503 ft / 3,506 m 31.24° / 32.62° ASPHALT 0 ft / 0 m 197 ft / 60 m APP EDGE THRESHOLD
22 148 ft / 45 m 11,503 ft / 3,506 m 211.25° / 212.64° ASPHALT 0 ft / 0 m 197 ft / 60 m PREC-APP EDGE THRESHOLD MALS

Approach Navaids

Runway Type Ident Frequency Range Bearing (true/mag) Slope Elevation
22 LOC-ILS RS 110.90 MHz 18 nm / 33 km 211.23° / 212.62 ° - 250 ft / 76 m (AMSL)
22 GS RS 110.90 MHz 10 nm / 19 km 211.48° / 212.87 ° 3.00° 246 ft / 75 m (AMSL)
22 DME RS 110.90 MHz 18 nm / 33 km - - 39 ft / 12 m (AMSL)
22 OM OM - - 211.24° / 212.63 ° - 276 ft / 84 m (AMSL)
22 MM MM - - 211.24° / 212.63 ° - 276 ft / 84 m (AMSL)